Time;durP1;ratioP1;P1;durP2;ratioP2;P2;SDS_P1;SDS_P2;PMS_P1;PMS_P2;Temp;Humidity;BMP_temperature;BMP_pressure;BME280_temperature;BME280_humidity;BME280_pressure;Samples;Min_cycle;Max_cycle;Signal;HPM_P1;HPM_P2
2020/12/20 00:01:50;;;;;;;8.95;6.70;;;6.60;99.90;;;;;;5038311;28;20025;-45
2020/12/20 00:04:15;;;;;;;9.60;6.45;;;6.60;99.90;;;;;;5040277;28;20101;-44
2020/12/20 00:06:43;;;;;;;12.43;6.97;;;6.70;99.90;;;;;;5040385;28;20293;-43
2020/12/20 00:09:21;;;;;;;10.73;7.30;;;6.70;99.90;;;;;;5039854;28;20457;-44
2020/12/20 00:11:48;;;;;;;12.50;7.13;;;6.70;99.90;;;;;;5035978;28;20181;-44
2020/12/20 00:14:27;;;;;;;10.60;7.05;;;6.70;99.90;;;;;;5041192;28;20530;-45
2020/12/20 00:17:01;;;;;;;8.75;5.95;;;6.80;99.90;;;;;;5039702;28;20033;-45
2020/12/20 00:19:27;;;;;;;10.98;5.70;;;6.80;99.90;;;;;;5041738;28;20036;-46
2020/12/20 00:22:01;;;;;;;8.18;5.85;;;6.80;99.90;;;;;;5039781;28;20056;-46
2020/12/20 00:24:27;;;;;;;8.73;5.38;;;6.80;99.90;;;;;;5039150;28;20033;-44
2020/12/20 00:26:53;;;;;;;9.57;6.05;;;6.80;99.90;;;;;;5041639;28;20078;-45
2020/12/20 00:29:19;;;;;;;9.50;5.90;;;6.80;99.90;;;;;;5038880;28;20032;-43
2020/12/20 00:31:44;;;;;;;8.57;5.75;;;6.80;99.90;;;;;;5039483;28;20025;-47
2020/12/20 00:34:10;;;;;;;8.10;5.45;;;6.70;99.90;;;;;;5041210;28;20021;-44
2020/12/20 00:36:36;;;;;;;7.30;5.20;;;6.70;99.90;;;;;;5039140;28;20067;-43
2020/12/20 00:39:04;;;;;;;6.75;5.32;;;6.70;99.90;;;;;;5040052;28;20018;-43
2020/12/20 00:41:30;;;;;;;9.02;6.45;;;6.80;99.90;;;;;;5038615;28;20049;-43
2020/12/20 00:43:55;;;;;;;8.75;6.22;;;6.80;99.90;;;;;;5031663;28;20030;-45
2020/12/20 00:46:21;;;;;;;11.52;6.53;;;6.80;99.90;;;;;;5030739;28;20018;-44
2020/12/20 00:48:47;;;;;;;10.50;6.35;;;6.80;99.90;;;;;;5031885;28;20596;-44
2020/12/20 00:51:12;;;;;;;9.77;5.88;;;6.90;99.90;;;;;;5031379;28;20467;-43
2020/12/20 00:53:38;;;;;;;9.90;6.35;;;6.90;99.90;;;;;;5031102;28;20105;-44
2020/12/20 00:56:07;;;;;;;10.98;6.68;;;6.90;99.90;;;;;;5030497;28;20021;-44
2020/12/20 00:58:33;;;;;;;10.60;6.32;;;6.90;99.90;;;;;;5036497;28;20089;-44
2020/12/20 01:01:02;;;;;;;9.65;6.72;;;6.80;99.90;;;;;;5050959;28;20112;-45
2020/12/20 01:03:28;;;;;;;8.85;5.82;;;6.90;99.90;;;;;;5050944;28;20426;-45
2020/12/20 01:05:53;;;;;;;8.20;6.05;;;6.80;99.90;;;;;;5047510;28;20029;-44
2020/12/20 01:08:19;;;;;;;10.23;7.10;;;6.80;99.90;;;;;;5031863;28;20166;-44
2020/12/20 01:10:44;;;;;;;11.38;6.93;;;6.80;99.90;;;;;;5050736;28;20025;-44
2020/12/20 01:13:10;;;;;;;9.23;6.60;;;6.90;99.90;;;;;;5049557;28;20032;-44
2020/12/20 01:15:35;;;;;;;9.77;6.28;;;6.80;99.90;;;;;;5049974;28;20051;-42
2020/12/20 01:18:01;;;;;;;8.80;6.32;;;6.80;99.90;;;;;;5050563;28;20474;-43
2020/12/20 01:20:26;;;;;;;10.85;6.47;;;6.90;99.90;;;;;;5035796;28;20037;-44
2020/12/20 01:22:52;;;;;;;10.05;5.82;;;6.90;99.90;;;;;;5030312;28;20048;-43
2020/12/20 01:25:17;;;;;;;8.68;5.72;;;6.90;99.90;;;;;;5028260;28;20148;-42
2020/12/20 01:27:43;;;;;;;8.35;5.75;;;6.90;99.90;;;;;;5030207;28;20033;-43
2020/12/20 01:30:09;;;;;;;10.63;6.18;;;6.90;99.90;;;;;;5038937;28;20245;-42
2020/12/20 01:32:35;;;;;;;9.02;6.50;;;6.90;99.90;;;;;;5049362;28;20063;-43
2020/12/20 01:35:00;;;;;;;10.73;6.00;;;6.90;99.90;;;;;;5049596;28;20060;-44
2020/12/20 01:37:26;;;;;;;8.80;5.22;;;6.90;99.90;;;;;;5050411;28;20075;-43
2020/12/20 01:39:51;;;;;;;12.48;6.63;;;6.90;99.90;;;;;;5048199;28;20079;-44
2020/12/20 01:42:17;;;;;;;10.55;5.93;;;7.00;99.90;;;;;;5029873;28;20113;-43
2020/12/20 01:44:42;;;;;;;8.90;6.30;;;7.00;99.90;;;;;;5028073;28;20040;-43
2020/12/20 01:47:08;;;;;;;9.90;6.10;;;6.90;99.90;;;;;;5029899;28;20025;-44
2020/12/20 01:49:34;;;;;;;9.00;5.97;;;7.00;99.90;;;;;;5030077;28;20072;-44
2020/12/20 01:52:00;;;;;;;8.32;5.80;;;7.00;99.90;;;;;;5046306;28;20056;-45
2020/12/20 01:54:27;;;;;;;10.35;6.47;;;7.00;99.90;;;;;;5046684;28;20512;-46
2020/12/20 01:56:52;;;;;;;11.50;6.57;;;7.10;99.90;;;;;;5029367;28;20029;-46
2020/12/20 01:59:18;;;;;;;12.30;6.85;;;7.00;99.90;;;;;;5029853;28;20481;-42
2020/12/20 02:01:43;;;;;;;11.95;6.00;;;7.00;99.90;;;;;;5031129;28;20036;-43
2020/12/20 02:04:09;;;;;;;10.63;6.65;;;7.00;99.90;;;;;;5029749;28;20040;-43
2020/12/20 02:06:37;;;;;;;11.00;6.55;;;7.00;99.90;;;;;;5029451;28;20029;-46
2020/12/20 02:09:02;;;;;;;8.25;5.75;;;7.00;99.90;;;;;;5029569;28;20053;-43
2020/12/20 02:11:28;;;;;;;10.00;5.97;;;7.00;99.90;;;;;;5033041;28;20074;-44
2020/12/20 02:13:53;;;;;;;12.55;7.03;;;7.00;99.90;;;;;;5049455;28;20029;-43
2020/12/20 02:16:21;;;;;;;11.13;6.45;;;7.00;99.90;;;;;;5049166;28;20040;-43
2020/12/20 02:18:48;;;;;;;9.07;5.88;;;7.00;99.90;;;;;;5046773;28;20100;-44
2020/12/20 02:21:18;;;;;;;9.90;5.82;;;7.00;99.90;;;;;;5044825;28;20032;-42
2020/12/20 02:23:50;;;;;;;9.27;6.28;;;7.00;99.90;;;;;;5049228;28;20203;-43
2020/12/20 02:26:17;;;;;;;9.95;5.65;;;7.00;99.90;;;;;;5048588;28;20033;-42
2020/12/20 02:28:43;;;;;;;11.20;6.85;;;7.00;99.90;;;;;;5049245;28;20040;-43
2020/12/20 02:31:09;;;;;;;10.65;6.53;;;7.00;99.90;;;;;;5035971;28;20483;-44
2020/12/20 02:33:35;;;;;;;10.55;6.63;;;7.00;99.90;;;;;;5029462;28;20036;-43
2020/12/20 02:36:01;;;;;;;11.75;6.93;;;7.00;99.90;;;;;;5028697;28;20033;-43
2020/12/20 02:38:28;;;;;;;9.55;6.68;;;7.10;99.90;;;;;;5029419;28;20025;-44
2020/12/20 02:40:55;;;;;;;13.35;7.55;;;7.00;99.90;;;;;;5036818;28;20017;-45
2020/12/20 02:43:20;;;;;;;11.40;6.80;;;7.00;99.90;;;;;;5049383;28;20092;-44
2020/12/20 02:45:46;;;;;;;12.35;6.63;;;7.00;99.90;;;;;;5048605;28;20343;-44
2020/12/20 02:48:11;;;;;;;10.05;6.13;;;6.90;99.90;;;;;;5048948;28;20075;-42
2020/12/20 02:50:37;;;;;;;8.35;5.60;;;6.90;99.90;;;;;;5034058;28;20356;-44
2020/12/20 02:53:02;;;;;;;10.75;6.00;;;7.00;99.90;;;;;;5048578;28;20041;-43
2020/12/20 02:55:28;;;;;;;11.45;5.65;;;6.90;99.90;;;;;;5048487;28;20017;-42
2020/12/20 02:57:53;;;;;;;8.48;5.72;;;7.00;99.90;;;;;;5031876;28;20101;-43
2020/12/20 03:00:20;;;;;;;7.60;5.20;;;7.00;99.90;;;;;;5029007;28;20021;-43
2020/12/20 03:02:45;;;;;;;7.88;5.70;;;6.90;99.90;;;;;;5029368;28;20486;-43
2020/12/20 03:05:11;;;;;;;10.05;5.30;;;7.00;99.90;;;;;;5028552;28;20040;-45
2020/12/20 03:07:36;;;;;;;7.78;5.38;;;6.90;99.90;;;;;;5028270;28;20072;-45
2020/12/20 03:10:04;;;;;;;7.28;5.70;;;6.90;99.90;;;;;;5028942;28;20049;-44
2020/12/20 03:12:29;;;;;;;12.57;7.53;;;6.90;99.90;;;;;;5029067;28;20566;-43
2020/12/20 03:14:56;;;;;;;8.63;6.20;;;6.90;99.90;;;;;;5028118;28;20120;-44
2020/12/20 03:17:21;;;;;;;9.75;6.53;;;6.90;99.90;;;;;;5026918;28;20067;-44
2020/12/20 03:19:48;;;;;;;9.25;7.25;;;6.80;99.90;;;;;;5027276;28;20429;-44
2020/12/20 03:22:14;;;;;;;10.20;6.60;;;6.80;99.90;;;;;;5028465;28;20018;-44
2020/12/20 03:24:40;;;;;;;11.48;6.65;;;6.80;99.90;;;;;;5027884;28;20055;-44
2020/12/20 03:27:05;;;;;;;10.40;6.97;;;6.80;99.90;;;;;;5028056;28;20116;-44
2020/12/20 03:29:31;;;;;;;9.82;7.03;;;6.90;99.90;;;;;;5026977;28;20138;-47
2020/12/20 03:31:57;;;;;;;10.35;5.80;;;7.00;99.90;;;;;;5028751;28;20039;-44
2020/12/20 03:34:23;;;;;;;15.13;6.25;;;6.90;99.90;;;;;;5026543;28;20048;-42
2020/12/20 03:36:48;;;;;;;10.55;6.63;;;6.90;99.90;;;;;;5029766;28;20025;-44
2020/12/20 03:39:14;;;;;;;10.00;6.45;;;6.90;99.90;;;;;;5032809;28;20033;-44
2020/12/20 03:41:39;;;;;;;11.00;6.88;;;6.80;99.90;;;;;;5032766;28;20017;-42
2020/12/20 03:44:05;;;;;;;10.15;7.03;;;6.80;99.90;;;;;;5048617;28;20032;-44
2020/12/20 03:46:30;;;;;;;11.02;7.13;;;6.80;99.90;;;;;;5051846;28;20025;-45
2020/12/20 03:48:56;;;;;;;8.95;6.18;;;6.70;99.90;;;;;;5052277;28;20194;-45
2020/12/20 03:51:21;;;;;;;12.68;7.25;;;6.80;99.90;;;;;;5052211;28;20501;-43
2020/12/20 03:53:47;;;;;;;9.02;6.05;;;6.70;99.90;;;;;;5041212;28;20037;-43
2020/12/20 03:56:12;;;;;;;10.18;6.57;;;6.70;99.90;;;;;;5031534;28;20029;-42
2020/12/20 03:58:38;;;;;;;11.32;6.85;;;6.70;99.90;;;;;;5031318;28;20506;-45
2020/12/20 04:01:03;;;;;;;9.90;7.20;;;6.70;99.90;;;;;;5031839;28;20025;-43
2020/12/20 04:03:29;;;;;;;11.88;6.75;;;6.70;99.90;;;;;;5032382;28;20434;-43
2020/12/20 04:05:55;;;;;;;9.27;6.25;;;6.70;99.90;;;;;;5030016;28;20025;-44
2020/12/20 04:08:21;;;;;;;8.35;5.72;;;6.70;99.90;;;;;;5031897;28;20037;-44
2020/12/20 04:10:46;;;;;;;9.70;6.03;;;6.70;99.90;;;;;;5032281;28;20029;-44
2020/12/20 04:13:12;;;;;;;8.95;6.53;;;6.70;99.90;;;;;;5030387;28;20063;-43
2020/12/20 04:15:38;;;;;;;11.63;6.45;;;6.70;99.90;;;;;;5051440;28;20029;-45
2020/12/20 04:18:04;;;;;;;7.43;5.50;;;6.80;99.90;;;;;;5051737;28;20120;-44
2020/12/20 04:20:29;;;;;;;10.32;6.07;;;6.70;99.90;;;;;;5052167;28;20541;-43
2020/12/20 04:22:55;;;;;;;7.63;5.25;;;6.70;99.90;;;;;;5050318;28;20021;-46
2020/12/20 04:25:20;;;;;;;8.48;5.47;;;6.70;99.90;;;;;;5035828;28;20135;-43
2020/12/20 04:27:48;;;;;;;8.73;6.13;;;6.70;99.90;;;;;;5031335;28;20371;-44
2020/12/20 04:30:14;;;;;;;8.23;6.10;;;6.60;99.90;;;;;;5030299;28;20028;-43
2020/12/20 04:32:40;;;;;;;12.13;6.28;;;6.70;99.90;;;;;;5031603;28;20037;-44
2020/12/20 04:35:05;;;;;;;7.35;5.60;;;6.70;99.90;;;;;;5030869;28;20026;-43
2020/12/20 04:37:31;;;;;;;8.40;5.30;;;6.60;99.90;;;;;;5031455;28;20025;-43
2020/12/20 04:39:56;;;;;;;8.07;5.72;;;6.60;99.90;;;;;;5031375;28;20029;-45
2020/12/20 04:42:22;;;;;;;9.60;6.07;;;6.60;99.90;;;;;;5031216;28;20352;-43
2020/12/20 04:44:47;;;;;;;8.35;5.90;;;6.60;99.90;;;;;;5035565;28;20394;-43
2020/12/20 04:47:15;;;;;;;10.00;7.22;;;6.60;99.90;;;;;;5051720;28;20068;-42
2020/12/20 04:49:44;;;;;;;9.45;6.22;;;6.70;99.90;;;;;;5051416;28;20417;-43
2020/12/20 04:52:10;;;;;;;7.43;5.30;;;6.70;99.90;;;;;;5051630;28;20024;-44
2020/12/20 04:54:38;;;;;;;9.82;6.70;;;6.70;99.90;;;;;;5050116;28;20021;-42
2020/12/20 04:57:05;;;;;;;8.55;6.28;;;6.70;99.90;;;;;;5031237;28;20033;-42
2020/12/20 04:59:32;;;;;;;10.65;6.70;;;6.70;99.90;;;;;;5030970;28;20064;-44
2020/12/20 05:01:57;;;;;;;8.52;6.53;;;6.70;99.90;;;;;;5031002;28;20083;-44
2020/12/20 05:04:23;;;;;;;12.85;6.28;;;6.70;99.90;;;;;;5030706;28;20029;-43
2020/12/20 05:06:48;;;;;;;8.60;5.75;;;6.60;99.90;;;;;;5029324;28;20268;-44
2020/12/20 05:09:14;;;;;;;10.18;5.93;;;6.70;99.90;;;;;;5030687;28;20041;-46
2020/12/20 05:11:43;;;;;;;9.18;6.60;;;6.70;99.90;;;;;;5030756;28;20049;-43
2020/12/20 05:14:10;;;;;;;9.50;6.40;;;6.60;99.90;;;;;;5029238;28;20029;-45
2020/12/20 05:16:38;;;;;;;8.65;5.93;;;6.70;99.90;;;;;;5030575;28;20334;-43
2020/12/20 05:19:06;;;;;;;7.00;5.55;;;6.60;99.90;;;;;;5030674;28;20022;-43
2020/12/20 05:21:32;;;;;;;7.68;5.60;;;6.60;99.90;;;;;;5030611;28;20052;-43
2020/12/20 05:23:59;;;;;;;7.20;5.68;;;6.70;99.90;;;;;;5029284;28;20021;-43
2020/12/20 05:26:29;;;;;;;9.02;6.60;;;6.60;99.90;;;;;;5030934;28;20029;-43
2020/12/20 05:29:12;;;;;;;10.77;6.00;;;6.60;99.90;;;;;;5028777;28;20117;-44
2020/12/20 05:31:38;;;;;;;8.95;6.30;;;6.60;99.90;;;;;;5029436;28;20510;-43
2020/12/20 05:34:04;;;;;;;7.57;6.00;;;6.60;99.90;;;;;;5030910;28;20084;-42
2020/12/20 05:36:30;;;;;;;9.93;6.95;;;6.60;99.90;;;;;;5029027;28;20394;-44
2020/12/20 05:39:16;;;;;;;9.07;6.25;;;6.60;99.90;;;;;;5030533;28;20018;-42
2020/12/20 05:41:42;;;;;;;9.65;6.80;;;6.60;99.90;;;;;;5036867;28;20035;-43
2020/12/20 05:44:17;;;;;;;13.18;7.07;;;6.70;99.90;;;;;;5038578;28;20296;-45
2020/12/20 05:46:44;;;;;;;9.70;6.70;;;6.70;99.90;;;;;;5035507;28;20063;-43
2020/12/20 05:49:15;;;;;;;11.50;6.97;;;6.60;99.90;;;;;;5038655;28;20017;-43
2020/12/20 05:52:07;;;;;;;8.52;6.03;;;6.60;99.90;;;;;;5047567;28;20025;-42
2020/12/20 05:54:36;;;;;;;7.70;5.95;;;6.50;99.90;;;;;;5035756;28;20072;-42
2020/12/20 05:57:15;;;;;;;8.00;5.88;;;6.50;99.90;;;;;;5037919;28;20525;-42
2020/12/20 05:59:43;;;;;;;7.95;5.68;;;6.50;99.90;;;;;;5038955;28;20390;-42
2020/12/20 06:02:10;;;;;;;9.80;6.53;;;6.60;99.90;;;;;;5040767;28;20048;-43
2020/12/20 06:04:37;;;;;;;7.38;6.07;;;6.60;99.90;;;;;;5038903;28;20029;-42
2020/12/20 06:07:03;;;;;;;9.25;6.47;;;6.60;99.90;;;;;;5039905;28;20043;-43
2020/12/20 06:09:29;;;;;;;8.93;6.15;;;6.60;99.90;;;;;;5038334;28;20056;-42
2020/12/20 06:11:57;;;;;;;9.50;6.68;;;6.60;99.90;;;;;;5040172;28;20025;-43
2020/12/20 06:14:25;;;;;;;9.68;5.85;;;6.60;99.90;;;;;;5037022;28;20372;-43
2020/12/20 06:17:14;;;;;;;11.05;7.45;;;6.60;99.90;;;;;;5029915;28;20041;-43
2020/12/20 06:19:53;;;;;;;9.20;6.70;;;6.60;99.90;;;;;;5029638;28;20087;-42
2020/12/20 06:22:20;;;;;;;10.27;6.18;;;6.60;99.90;;;;;;5028239;28;20025;-43
2020/12/20 06:24:47;;;;;;;9.63;7.10;;;6.60;99.90;;;;;;5031165;28;20026;-43
2020/12/20 06:27:15;;;;;;;8.68;6.68;;;6.70;99.90;;;;;;5049212;28;20028;-42
2020/12/20 06:29:53;;;;;;;8.98;6.70;;;6.70;99.90;;;;;;5048891;28;20521;-44
2020/12/20 06:32:48;;;;;;;9.23;6.75;;;6.70;99.90;;;;;;5049244;28;20125;-43
2020/12/20 06:35:26;;;;;;;12.02;7.45;;;6.70;99.90;;;;;;5044306;28;20132;-43
2020/12/20 06:37:52;;;;;;;9.52;7.10;;;6.70;99.90;;;;;;5029138;28;20249;-44
2020/12/20 06:40:40;;;;;;;10.35;6.95;;;6.70;99.90;;;;;;5029044;28;20021;-45
2020/12/20 06:43:07;;;;;;;8.38;6.35;;;6.70;99.90;;;;;;5028677;28;20436;-43
2020/12/20 06:45:40;;;;;;;9.55;6.63;;;6.70;99.90;;;;;;5027698;28;20025;-43
2020/12/20 06:48:08;;;;;;;11.07;6.85;;;6.70;99.90;;;;;;5027765;28;20029;-44
2020/12/20 06:50:42;;;;;;;9.30;6.93;;;6.70;99.90;;;;;;5028857;28;20267;-43
2020/12/20 06:53:10;;;;;;;9.65;6.55;;;6.70;99.90;;;;;;5028924;28;20032;-45
2020/12/20 06:55:36;;;;;;;12.07;7.03;;;6.70;99.90;;;;;;5029039;28;20072;-43
2020/12/20 06:58:04;;;;;;;9.50;6.80;;;6.70;99.90;;;;;;5048654;28;20044;-44
2020/12/20 07:00:42;;;;;;;10.73;7.68;;;6.80;99.90;;;;;;5048838;28;20021;-43
2020/12/20 07:03:31;;;;;;;8.77;6.28;;;6.80;99.90;;;;;;5048550;28;20028;-43
2020/12/20 07:06:16;;;;;;;9.50;7.47;;;6.80;99.90;;;;;;5047169;28;20087;-43
2020/12/20 07:08:42;;;;;;;9.43;7.15;;;6.90;99.90;;;;;;5044029;28;20039;-43
2020/12/20 07:11:28;;;;;;;11.65;7.35;;;6.80;99.90;;;;;;5027743;28;20029;-44
2020/12/20 07:13:55;;;;;;;10.50;7.00;;;6.80;99.90;;;;;;5028260;28;20081;-43
2020/12/20 07:16:23;;;;;;;9.07;7.13;;;6.80;99.90;;;;;;5029267;28;20097;-44
2020/12/20 07:18:54;;;;;;;9.75;7.68;;;6.80;99.90;;;;;;5039800;28;20068;-43
2020/12/20 07:21:19;;;;;;;9.95;6.65;;;6.90;99.90;;;;;;5038072;28;20610;-44
2020/12/20 07:23:51;;;;;;;12.02;7.75;;;6.90;99.90;;;;;;5035123;28;20083;-42
2020/12/20 07:26:18;;;;;;;11.98;8.07;;;6.90;99.90;;;;;;5035800;28;20387;-42
2020/12/20 07:28:45;;;;;;;10.52;7.22;;;6.90;99.90;;;;;;5033360;28;20117;-44
2020/12/20 07:31:16;;;;;;;12.38;7.75;;;6.90;99.90;;;;;;5029768;28;20017;-43
2020/12/20 07:33:45;;;;;;;13.50;7.35;;;6.90;99.90;;;;;;5031197;28;20029;-42
2020/12/20 07:36:11;;;;;;;10.30;7.07;;;6.90;99.90;;;;;;5035472;28;20324;-45
2020/12/20 07:38:37;;;;;;;8.00;6.55;;;7.00;99.90;;;;;;5031717;28;21081;-43
2020/12/20 07:41:09;;;;;;;11.73;8.35;;;7.00;99.90;;;;;;5032205;28;20051;-42
2020/12/20 07:43:35;;;;;;;13.38;8.55;;;7.00;99.90;;;;;;5031873;28;20037;-43
2020/12/20 07:46:02;;;;;;;14.73;8.60;;;7.00;99.90;;;;;;5035084;28;20352;-44
2020/12/20 07:48:28;;;;;;;10.60;8.00;;;7.00;99.90;;;;;;5034456;28;20029;-43
2020/12/20 07:51:09;;;;;;;11.30;7.63;;;7.00;99.90;;;;;;5031025;28;20104;-42
2020/12/20 07:53:35;;;;;;;;;;;7.00;99.90;;;;;;5045334;28;20070;-42
2020/12/20 07:56:01;;;;;;;9.05;7.43;;;7.00;99.90;;;;;;5035763;28;20152;-43
2020/12/20 07:58:30;;;;;;;10.40;7.20;;;7.00;99.90;;;;;;5031770;28;20017;-43
2020/12/20 08:01:06;;;;;;;9.27;7.00;;;7.00;99.90;;;;;;5041440;28;20053;-42
2020/12/20 08:03:33;;;;;;;10.10;7.38;;;7.10;99.90;;;;;;5037368;28;20526;-44
2020/12/20 08:06:24;;;;;;;14.18;8.00;;;7.10;99.90;;;;;;5032668;28;20029;-43
2020/12/20 08:08:50;;;;;;;12.00;7.43;;;7.10;99.90;;;;;;5035521;28;20053;-43
2020/12/20 08:11:27;;;;;;;12.13;8.85;;;7.10;99.90;;;;;;5047918;28;20032;-44
2020/12/20 08:13:58;;;;;;;12.15;8.38;;;7.20;99.90;;;;;;5047749;28;20398;-43
2020/12/20 08:16:24;;;;;;;;;;;7.20;99.90;;;;;;5047799;28;20526;-44
2020/12/20 08:18:52;;;;;;;8.88;6.45;;;7.20;99.90;;;;;;5043347;28;19909;-43
2020/12/20 08:21:26;;;;;;;11.25;8.23;;;7.20;99.90;;;;;;5030576;28;20103;-45
2020/12/20 08:23:55;;;;;;;10.18;7.00;;;7.20;99.90;;;;;;5037615;28;20499;-45
2020/12/20 08:26:29;;;;;;;9.45;7.45;;;7.20;99.90;;;;;;5030893;28;20310;-44
2020/12/20 08:28:55;;;;;;;9.23;6.53;;;7.20;99.90;;;;;;5031580;28;20143;-45
2020/12/20 08:31:21;;;;;;;8.52;6.30;;;7.20;99.90;;;;;;5032205;28;20502;-44
2020/12/20 08:33:47;;;;;;;12.10;8.10;;;7.20;99.90;;;;;;5039728;28;20471;-43
2020/12/20 08:36:20;;;;;;;12.95;8.55;;;7.30;99.90;;;;;;5040200;28;20087;-44
2020/12/20 08:38:45;;;;;;;10.85;7.40;;;7.30;99.90;;;;;;5040198;28;20021;-44
2020/12/20 08:41:25;;;;;;;11.10;6.90;;;7.30;99.90;;;;;;5040893;28;20528;-44
2020/12/20 08:44:08;;;;;;;10.02;6.80;;;7.30;99.90;;;;;;5040649;28;20021;-45
2020/12/20 08:46:44;;;;;;;12.15;7.72;;;7.30;99.90;;;;;;5041154;28;20018;-44
2020/12/20 08:49:21;;;;;;;9.98;6.97;;;7.40;99.90;;;;;;5040534;28;20390;-43
2020/12/20 08:51:50;;;;;;;11.73;7.15;;;7.40;99.90;;;;;;5041299;28;20478;-45
2020/12/20 08:54:28;;;;;;;11.80;7.25;;;7.50;99.90;;;;;;5041044;28;20425;-44
2020/12/20 08:56:54;;;;;;;9.65;6.90;;;7.50;99.90;;;;;;5038383;28;20390;-46
2020/12/20 08:59:31;;;;;;;11.95;7.15;;;7.50;99.90;;;;;;5040707;28;20103;-44
2020/12/20 09:01:59;;;;;;;8.18;6.72;;;7.40;99.90;;;;;;5039713;28;20100;-44
2020/12/20 09:04:33;;;;;;;13.85;7.82;;;7.50;99.90;;;;;;5040158;28;20033;-44
2020/12/20 09:07:11;;;;;;;8.80;6.80;;;7.50;99.90;;;;;;5036384;28;20021;-45
2020/12/20 09:09:40;;;;;;;10.90;7.80;;;7.50;99.90;;;;;;5040208;28;20071;-44
2020/12/20 09:12:09;;;;;;;10.75;7.70;;;7.50;99.90;;;;;;5037846;28;20386;-46
2020/12/20 09:14:36;;;;;;;11.90;8.88;;;7.50;99.90;;;;;;5029912;28;20025;-47
2020/12/20 09:17:03;;;;;;;14.93;9.07;;;7.60;99.90;;;;;;5033996;28;20211;-43
2020/12/20 09:19:29;;;;;;;11.30;8.68;;;7.50;99.90;;;;;;5034813;28;20037;-45
2020/12/20 09:21:54;;;;;;;10.88;7.88;;;7.60;99.90;;;;;;5033170;28;20542;-44
2020/12/20 09:24:21;;;;;;;15.13;9.00;;;7.60;99.90;;;;;;5043473;28;20067;-44
2020/12/20 09:27:00;;;;;;;11.77;8.25;;;7.50;99.90;;;;;;5032629;28;20095;-45
2020/12/20 09:29:26;;;;;;;10.88;7.97;;;7.50;99.90;;;;;;5044763;28;20028;-48
2020/12/20 09:31:53;;;;;;;12.57;7.82;;;7.50;99.90;;;;;;5039991;28;20020;-45
2020/12/20 09:34:31;;;;;;;13.15;8.85;;;7.50;99.90;;;;;;5033776;28;20025;-44
2020/12/20 09:37:04;;;;;;;15.43;8.52;;;7.50;99.90;;;;;;5037153;28;20017;-44
2020/12/20 09:39:30;;;;;;;11.18;7.65;;;7.50;99.90;;;;;;5042610;28;20025;-44
2020/12/20 09:41:55;;;;;;;15.18;9.00;;;7.50;99.90;;;;;;5047684;28;20031;-45
2020/12/20 09:44:21;;;;;;;14.27;9.18;;;7.50;99.90;;;;;;5044021;28;20060;-44
2020/12/20 09:46:48;;;;;;;11.93;8.68;;;7.50;99.90;;;;;;5036605;28;20434;-46
2020/12/20 09:49:15;;;;;;;14.13;9.13;;;7.50;99.90;;;;;;5039714;28;20482;-45
2020/12/20 09:51:40;;;;;;;15.05;8.88;;;7.50;99.90;;;;;;5038390;28;20658;-45
2020/12/20 09:54:06;;;;;;;13.80;8.82;;;7.50;99.90;;;;;;5034911;28;20156;-47
2020/12/20 09:56:31;;;;;;;12.65;8.82;;;7.50;99.90;;;;;;5037674;28;20131;-46
2020/12/20 09:58:57;;;;;;;13.07;9.73;;;7.60;99.90;;;;;;5041035;28;20072;-46
2020/12/20 10:01:27;;;;;;;16.20;10.57;;;7.60;99.90;;;;;;5040974;28;20017;-45
2020/12/20 10:03:52;;;;;;;13.50;9.00;;;7.60;99.90;;;;;;5040473;28;20024;-45
2020/12/20 10:06:18;;;;;;;16.83;9.13;;;7.60;99.90;;;;;;5038152;28;20033;-47
2020/12/20 10:08:44;;;;;;;16.70;9.45;;;7.60;99.90;;;;;;5037546;28;20422;-44
2020/12/20 10:11:10;;;;;;;17.30;9.60;;;7.60;99.90;;;;;;5033288;28;20053;-44
2020/12/20 10:13:36;;;;;;;16.42;10.20;;;7.70;99.90;;;;;;5032790;28;20052;-44
2020/12/20 10:16:03;;;;;;;14.73;9.27;;;7.70;99.90;;;;;;5032991;28;20025;-45
2020/12/20 10:18:28;;;;;;;13.27;9.48;;;7.70;99.90;;;;;;5039678;28;20109;-44
2020/12/20 10:20:54;;;;;;;17.45;9.85;;;7.70;99.90;;;;;;5043523;28;20104;-46
2020/12/20 10:23:19;;;;;;;14.27;9.88;;;7.80;99.90;;;;;;5042607;28;20033;-46
2020/12/20 10:25:45;;;;;;;14.88;9.55;;;7.80;99.90;;;;;;5042621;28;20478;-45
2020/12/20 10:28:10;;;;;;;14.20;9.15;;;7.90;99.90;;;;;;5042086;28;20471;-47
2020/12/20 10:30:37;;;;;;;11.85;9.23;;;7.90;99.90;;;;;;5037302;28;20031;-45
2020/12/20 10:33:02;;;;;;;13.70;10.20;;;8.00;99.90;;;;;;5038117;28;20053;-45
2020/12/20 10:35:28;;;;;;;14.18;9.68;;;8.00;99.90;;;;;;5036431;28;20138;-45
2020/12/20 10:37:55;;;;;;;13.18;8.98;;;8.10;99.90;;;;;;5037777;28;20031;-45
2020/12/20 10:40:24;;;;;;;13.80;8.73;;;8.10;99.90;;;;;;5035790;28;20028;-44
2020/12/20 10:42:50;;;;;;;13.77;9.23;;;8.10;99.90;;;;;;5035828;28;20051;-46
2020/12/20 10:45:16;;;;;;;13.10;9.93;;;8.10;99.90;;;;;;5036891;28;20413;-44
2020/12/20 10:47:42;;;;;;;14.10;9.80;;;8.10;99.90;;;;;;5036618;28;20065;-46
2020/12/20 10:50:07;;;;;;;16.05;10.38;;;8.10;99.90;;;;;;5038884;28;20021;-44
2020/12/20 10:52:33;;;;;;;17.25;9.32;;;8.10;99.90;;;;;;5037498;28;20037;-45
2020/12/20 10:55:00;;;;;;;15.05;10.30;;;8.10;99.90;;;;;;5036322;28;20541;-44
2020/12/20 10:57:26;;;;;;;17.08;10.73;;;8.10;99.90;;;;;;5038228;28;20017;-45
2020/12/20 10:59:52;;;;;;;15.02;10.63;;;8.10;99.90;;;;;;5038377;28;20094;-46
2020/12/20 11:02:17;;;;;;;16.25;10.43;;;8.20;99.90;;;;;;5034676;28;20030;-47
2020/12/20 11:04:43;;;;;;;18.25;11.52;;;8.10;99.90;;;;;;5035854;28;20552;-46
2020/12/20 11:07:08;;;;;;;17.88;10.98;;;8.20;99.90;;;;;;5036930;28;20025;-45
2020/12/20 11:09:34;;;;;;;17.65;11.10;;;8.20;99.90;;;;;;5037302;28;20051;-46
2020/12/20 11:11:59;;;;;;;14.60;9.70;;;8.20;99.90;;;;;;5036162;28;20474;-47
2020/12/20 11:14:25;;;;;;;20.60;12.25;;;8.20;99.90;;;;;;5037578;28;20107;-45
2020/12/20 11:16:51;;;;;;;14.32;10.15;;;8.10;99.90;;;;;;5036804;28;20032;-45
2020/12/20 11:19:19;;;;;;;15.23;11.20;;;8.20;99.90;;;;;;5035465;28;20108;-47
2020/12/20 11:21:47;;;;;;;16.27;11.10;;;8.20;99.90;;;;;;5037423;28;20029;-46
2020/12/20 11:24:13;;;;;;;15.65;9.60;;;8.10;99.90;;;;;;5037064;28;20017;-48
2020/12/20 11:26:42;;;;;;;16.83;10.38;;;8.10;99.90;;;;;;5035972;28;20378;-46
2020/12/20 11:29:08;;;;;;;17.00;11.48;;;8.00;99.90;;;;;;5030345;28;20089;-45
2020/12/20 11:31:34;;;;;;;18.42;10.55;;;8.10;99.90;;;;;;5036784;28;20155;-46
2020/12/20 11:33:59;;;;;;;13.88;10.13;;;8.10;99.90;;;;;;5036062;28;20021;-48
2020/12/20 11:36:25;;;;;;;17.00;11.40;;;8.10;99.90;;;;;;5037474;28;20032;-45
2020/12/20 11:38:51;;;;;;;14.10;10.30;;;8.10;99.90;;;;;;5036739;28;20014;-45
2020/12/20 11:41:26;;;;;;;16.83;10.70;;;8.00;99.90;;;;;;5036919;28;20462;-45
2020/12/20 11:43:52;;;;;;;15.38;10.98;;;8.00;99.90;;;;;;5035770;28;20433;-48
2020/12/20 11:46:18;;;;;;;17.70;10.70;;;8.10;99.90;;;;;;5036430;28;20035;-48
2020/12/20 11:48:43;;;;;;;14.82;10.18;;;8.10;99.90;;;;;;5038199;28;20022;-46
2020/12/20 11:51:10;;;;;;;15.38;11.10;;;8.00;99.90;;;;;;5037697;28;20038;-44
2020/12/20 11:53:36;;;;;;;14.15;9.77;;;8.10;99.90;;;;;;5036577;28;20490;-45
2020/12/20 11:56:09;;;;;;;16.08;10.77;;;8.10;99.90;;;;;;5035562;28;20064;-45
2020/12/20 11:58:35;;;;;;;12.32;9.75;;;8.20;99.90;;;;;;5039740;28;20482;-44
2020/12/20 12:01:00;;;;;;;16.27;10.98;;;8.20;99.90;;;;;;5039610;28;20053;-44
2020/12/20 12:03:26;;;;;;;18.48;12.20;;;8.20;99.90;;;;;;5040392;28;20031;-48
2020/12/20 12:05:52;;;;;;;18.70;12.80;;;8.20;99.90;;;;;;5040774;28;20475;-44
2020/12/20 12:08:17;;;;;;;17.80;11.55;;;8.30;99.90;;;;;;5039494;28;20192;-44
2020/12/20 12:10:46;;;;;;;16.00;11.88;;;8.30;99.90;;;;;;5039622;28;20043;-44
2020/12/20 12:13:12;;;;;;;18.38;11.82;;;8.30;99.90;;;;;;5037518;28;20371;-45
2020/12/20 12:15:38;;;;;;;21.38;13.90;;;8.30;99.90;;;;;;5040631;28;20030;-47
2020/12/20 12:18:04;;;;;;;19.17;12.77;;;8.30;99.90;;;;;;5038905;28;20037;-47
2020/12/20 12:20:30;;;;;;;18.08;12.73;;;8.40;99.90;;;;;;5036295;28;20029;-46
2020/12/20 12:22:56;;;;;;;19.92;13.25;;;8.20;99.90;;;;;;5039597;28;20393;-44
2020/12/20 12:25:22;;;;;;;22.98;12.75;;;8.20;99.90;;;;;;5039515;28;20033;-45
2020/12/20 12:27:47;;;;;;;17.77;11.73;;;8.30;99.90;;;;;;5038151;28;20288;-47
2020/12/20 12:30:13;;;;;;;18.13;13.05;;;8.20;99.90;;;;;;5040698;28;20029;-45
2020/12/20 12:32:40;;;;;;;18.33;12.02;;;8.30;99.90;;;;;;5041111;28;20025;-46
2020/12/20 12:35:08;;;;;;;19.33;12.45;;;8.30;99.90;;;;;;5039701;28;20506;-48
2020/12/20 12:37:34;;;;;;;17.25;11.35;;;8.30;99.90;;;;;;5039333;28;20487;-44
2020/12/20 12:40:00;;;;;;;17.88;11.85;;;8.30;99.90;;;;;;5038466;28;20033;-45
2020/12/20 12:42:25;;;;;;;17.98;13.00;;;8.30;99.90;;;;;;5038507;28;20230;-45
2020/12/20 12:44:51;;;;;;;19.13;12.45;;;8.30;99.90;;;;;;5037558;28;20144;-48
2020/12/20 12:47:17;;;;;;;19.65;12.57;;;8.40;99.90;;;;;;5038095;28;20083;-45
2020/12/20 12:49:42;;;;;;;22.50;14.10;;;8.40;99.90;;;;;;5039602;28;20921;-45
2020/12/20 12:52:08;;;;;;;20.13;13.52;;;8.40;99.90;;;;;;5045939;28;20099;-45
2020/12/20 12:54:34;;;;;;;17.95;11.80;;;8.30;99.90;;;;;;5045952;28;20579;-44